Tuktoyaktuk - southern half: Past 24 Hour Conditions

 

Norman Wells Airport

10:00 PM MDT 30 October 2014
This table is a summary of hourly weather conditions for the past 24 hours.
Date / Time
(MDT)
Wind(knots) Conditions Visibility(km) Pressure(kPa) Air tempC) Relative humidity(%) Dew pointC) Wind Chill
30 October 2014
22:00 WNW 3 Mist 8 100.6 -8 93 -9 -11
21:00 WNW 2 Mist 5 100.7 -8 92 -9 -10
20:00 ENE 2 Mist 3 100.8 -9 92 -10 -11
19:00 ENE 4 Light Snow 6 100.9 -9 92 -10 -14
18:00 E 2 Light Snow 8 100.9 -10 91 -11 -12
17:00 ENE 2 Light Snow 10 101.0 -10 91 -11 -13
16:00 NNW 2 Light Snow 16 101.1 -11 90 -13 -14
15:00 N 1 Light Snow 16 101.3 -12 89 -14 -14
14:00 calm Partly Cloudy 24 101.2 -12 89 -14 *
13:00 ENE 3 Light Snow 16 101.3 -13 89 -14 -16
12:00 NE 2 Light Snow 5 101.4 -13 89 -14 -16
11:00 NE 3 Light Snow 5 101.3 -14 88 -15 -18
10:00 NNE 2 Light Snow 10 101.4 -14 88 -15 -17
9:00 NNW 3 Light Snow 16 101.4 -14 87 -15 -17
8:00 NNW 3 Light Snow 8 101.4 -13 88 -15 -17
7:00 WNW 3 Light Snow 8 101.4 -13 89 -15 -16
6:00 NW 2 Light Snow 8 101.4 -13 89 -15 -15
5:00 NNW 2 Ice Fog 0.8 101.4 -13 88 -15 -16
4:00 NNW 4 Ice Fog 0.8 101.4 -14 88 -16 -19
3:00 NNW 3 Ice Fog 0.8 101.4 -14 90 -15 -18
2:00 NNW 3 Mist 5 101.4 -16 87 -17 -20
1:00 WNW 4 Mostly Cloudy 16 101.4 -14 91 -15 -19
0:00 NW 3 Mostly Cloudy 48 101.3 -17 82 -20 -22
29 October 2014
23:00 WSW 5 Partly Cloudy 48 101.3 -14 90 -16 -20
22:00 NW 3 Partly Cloudy 48 101.3 -14 89 -15 -18
 
Map of Arctic - Western Arctic marine weather areas Herschel Island Komakuk Beach Shingle Point Airport Aklavik Airport Cape Parry Airport Fort Good Hope Airport Inuvik Airport Keats Point Norman Wells Airport Paulatuk Airport Pelly Island Tuktoyaktuk Airport Kugluktuk Airport Gjoa Haven Airport Hat Island Kugaaruk Airport Shepherd Bay Airport CFS Alert Arctic Bay Cambridge Bay Airport Cape Peel West Eureka Airport Grise Fiord Airport Hall Beach Airport Igloolik Airport Isachsen Pond Inlet Airport Rea Point Repulse Bay Airport Resolute Airport Stefansson Island Taloyoak Airport Aulavik National Park Ulukhaktok Airport Sachs Harbour Airport Thomsen River Liverpool Bay Little Chicago Storm Hills Croker River Mould Bay Bathurst Inlet Fort Ross Gateshead Island Svartevaeg
Legend: buoyBuoy land stationLand Station » US Marine Weather